sensor_id;sensor_type;location;lat;lon;timestamp;temperature;humidity
1786;DHT22;890;48.158;11.540;2023-11-18T00:00:28;6.60;99.90
1786;DHT22;890;48.158;11.540;2023-11-18T00:02:53;6.60;99.90
1786;DHT22;890;48.158;11.540;2023-11-18T00:05:19;6.60;99.90
1786;DHT22;890;48.158;11.540;2023-11-18T00:07:44;6.60;99.90
1786;DHT22;890;48.158;11.540;2023-11-18T00:10:10;6.60;99.90
1786;DHT22;890;48.158;11.540;2023-11-18T00:12:36;6.70;99.90
1786;DHT22;890;48.158;11.540;2023-11-18T00:15:03;6.60;99.90
1786;DHT22;890;48.158;11.540;2023-11-18T00:17:32;6.60;99.90
1786;DHT22;890;48.158;11.540;2023-11-18T00:19:58;6.50;99.90
1786;DHT22;890;48.158;11.540;2023-11-18T00:22:24;6.50;99.90
1786;DHT22;890;48.158;11.540;2023-11-18T00:24:50;6.60;99.90
1786;DHT22;890;48.158;11.540;2023-11-18T00:27:16;6.50;99.90
1786;DHT22;890;48.158;11.540;2023-11-18T00:29:41;6.50;99.90
1786;DHT22;890;48.158;11.540;2023-11-18T00:32:09;6.50;99.90
1786;DHT22;890;48.158;11.540;2023-11-18T00:34:34;6.40;99.90
1786;DHT22;890;48.158;11.540;2023-11-18T00:37:00;6.40;99.90
1786;DHT22;890;48.158;11.540;2023-11-18T00:39:26;6.40;99.90
1786;DHT22;890;48.158;11.540;2023-11-18T00:41:52;6.30;99.90
1786;DHT22;890;48.158;11.540;2023-11-18T00:44:18;6.30;99.90
1786;DHT22;890;48.158;11.540;2023-11-18T00:46:44;6.40;99.90
1786;DHT22;890;48.158;11.540;2023-11-18T00:49:09;6.50;99.90
1786;DHT22;890;48.158;11.540;2023-11-18T00:51:37;6.50;99.90
1786;DHT22;890;48.158;11.540;2023-11-18T00:54:03;6.40;99.90
1786;DHT22;890;48.158;11.540;2023-11-18T00:56:31;6.40;99.90
1786;DHT22;890;48.158;11.540;2023-11-18T00:58:57;6.30;99.90
1786;DHT22;890;48.158;11.540;2023-11-18T01:01:22;6.30;99.90
1786;DHT22;890;48.158;11.540;2023-11-18T01:03:48;6.30;99.90
1786;DHT22;890;48.158;11.540;2023-11-18T01:06:14;6.20;99.90
1786;DHT22;890;48.158;11.540;2023-11-18T01:08:46;6.30;99.90
1786;DHT22;890;48.158;11.540;2023-11-18T01:11:21;6.20;99.90
1786;DHT22;890;48.158;11.540;2023-11-18T01:13:49;6.30;99.90
1786;DHT22;890;48.158;11.540;2023-11-18T01:16:14;6.30;99.90
1786;DHT22;890;48.158;11.540;2023-11-18T01:18:41;6.30;99.90
1786;DHT22;890;48.158;11.540;2023-11-18T01:21:06;6.30;99.90
1786;DHT22;890;48.158;11.540;2023-11-18T01:23:39;6.20;99.90
1786;DHT22;890;48.158;11.540;2023-11-18T01:26:10;6.20;99.90
1786;DHT22;890;48.158;11.540;2023-11-18T01:28:38;6.20;99.90
1786;DHT22;890;48.158;11.540;2023-11-18T01:31:07;6.20;99.90
1786;DHT22;890;48.158;11.540;2023-11-18T01:33:35;6.20;99.90
1786;DHT22;890;48.158;11.540;2023-11-18T01:36:03;6.20;99.90
1786;DHT22;890;48.158;11.540;2023-11-18T01:38:28;6.20;99.90
1786;DHT22;890;48.158;11.540;2023-11-18T01:40:54;6.20;99.90
1786;DHT22;890;48.158;11.540;2023-11-18T01:43:20;6.20;99.90
1786;DHT22;890;48.158;11.540;2023-11-18T01:45:47;6.30;99.90
1786;DHT22;890;48.158;11.540;2023-11-18T01:48:14;6.20;99.90
1786;DHT22;890;48.158;11.540;2023-11-18T01:50:41;6.10;99.90
1786;DHT22;890;48.158;11.540;2023-11-18T01:53:09;6.10;99.90
1786;DHT22;890;48.158;11.540;2023-11-18T01:55:36;6.20;99.90
1786;DHT22;890;48.158;11.540;2023-11-18T01:58:02;6.20;99.90
1786;DHT22;890;48.158;11.540;2023-11-18T02:00:35;6.20;99.90
1786;DHT22;890;48.158;11.540;2023-11-18T02:03:04;6.30;99.90
1786;DHT22;890;48.158;11.540;2023-11-18T02:05:31;6.30;99.90
1786;DHT22;890;48.158;11.540;2023-11-18T02:08:01;6.30;99.90
1786;DHT22;890;48.158;11.540;2023-11-18T02:10:30;6.30;99.90
1786;DHT22;890;48.158;11.540;2023-11-18T02:15:34;6.20;99.90
1786;DHT22;890;48.158;11.540;2023-11-18T02:18:02;6.20;99.90
1786;DHT22;890;48.158;11.540;2023-11-18T02:20:30;6.20;99.90
1786;DHT22;890;48.158;11.540;2023-11-18T02:22:56;6.30;99.90
1786;DHT22;890;48.158;11.540;2023-11-18T02:25:24;6.30;99.90
1786;DHT22;890;48.158;11.540;2023-11-18T02:27:52;6.30;99.90
1786;DHT22;890;48.158;11.540;2023-11-18T02:30:18;6.30;99.90
1786;DHT22;890;48.158;11.540;2023-11-18T02:33:01;6.30;99.90
1786;DHT22;890;48.158;11.540;2023-11-18T02:35:35;6.20;99.90
1786;DHT22;890;48.158;11.540;2023-11-18T02:38:03;6.10;99.90
1786;DHT22;890;48.158;11.540;2023-11-18T02:40:36;6.20;99.90
1786;DHT22;890;48.158;11.540;2023-11-18T02:43:04;6.10;99.90
1786;DHT22;890;48.158;11.540;2023-11-18T02:45:31;6.20;99.90
1786;DHT22;890;48.158;11.540;2023-11-18T02:47:57;6.20;99.90
1786;DHT22;890;48.158;11.540;2023-11-18T02:50:24;6.20;99.90
1786;DHT22;890;48.158;11.540;2023-11-18T02:52:50;6.20;99.90
1786;DHT22;890;48.158;11.540;2023-11-18T02:55:15;6.20;99.90
1786;DHT22;890;48.158;11.540;2023-11-18T02:57:41;6.30;99.90
1786;DHT22;890;48.158;11.540;2023-11-18T03:00:07;6.40;99.90
1786;DHT22;890;48.158;11.540;2023-11-18T03:02:42;6.40;99.90
1786;DHT22;890;48.158;11.540;2023-11-18T03:05:08;6.30;99.90
1786;DHT22;890;48.158;11.540;2023-11-18T03:07:46;6.30;99.90
1786;DHT22;890;48.158;11.540;2023-11-18T03:10:17;6.30;99.90
1786;DHT22;890;48.158;11.540;2023-11-18T03:12:50;6.30;99.90
1786;DHT22;890;48.158;11.540;2023-11-18T03:15:16;6.30;99.90
1786;DHT22;890;48.158;11.540;2023-11-18T03:17:49;6.30;99.90
1786;DHT22;890;48.158;11.540;2023-11-18T03:20:19;6.10;99.90
1786;DHT22;890;48.158;11.540;2023-11-18T03:22:48;6.20;99.90
1786;DHT22;890;48.158;11.540;2023-11-18T03:25:14;6.10;99.90
1786;DHT22;890;48.158;11.540;2023-11-18T03:27:40;6.10;99.90
1786;DHT22;890;48.158;11.540;2023-11-18T03:30:07;6.10;99.90
1786;DHT22;890;48.158;11.540;2023-11-18T03:32:34;6.20;99.90
1786;DHT22;890;48.158;11.540;2023-11-18T03:35:01;6.20;99.90
1786;DHT22;890;48.158;11.540;2023-11-18T03:37:27;6.20;99.90
1786;DHT22;890;48.158;11.540;2023-11-18T03:39:53;6.20;99.90
1786;DHT22;890;48.158;11.540;2023-11-18T03:42:19;6.30;99.90
1786;DHT22;890;48.158;11.540;2023-11-18T03:44:44;6.30;99.90
1786;DHT22;890;48.158;11.540;2023-11-18T03:47:16;6.40;99.90
1786;DHT22;890;48.158;11.540;2023-11-18T03:49:41;6.30;99.90
1786;DHT22;890;48.158;11.540;2023-11-18T03:52:07;6.40;99.90
1786;DHT22;890;48.158;11.540;2023-11-18T03:54:33;6.40;99.90
1786;DHT22;890;48.158;11.540;2023-11-18T03:56:59;6.40;99.90
1786;DHT22;890;48.158;11.540;2023-11-18T03:59:25;6.30;99.90
1786;DHT22;890;48.158;11.540;2023-11-18T04:01:51;6.30;99.90
1786;DHT22;890;48.158;11.540;2023-11-18T04:04:17;6.30;99.90
1786;DHT22;890;48.158;11.540;2023-11-18T04:06:43;6.30;99.90
1786;DHT22;890;48.158;11.540;2023-11-18T04:09:09;6.20;99.90
1786;DHT22;890;48.158;11.540;2023-11-18T04:11:36;6.20;99.90
1786;DHT22;890;48.158;11.540;2023-11-18T04:14:01;6.10;99.90
1786;DHT22;890;48.158;11.540;2023-11-18T04:16:30;6.10;99.90
1786;DHT22;890;48.158;11.540;2023-11-18T04:18:56;6.20;99.90
1786;DHT22;890;48.158;11.540;2023-11-18T04:21:22;6.30;99.90
1786;DHT22;890;48.158;11.540;2023-11-18T04:23:47;6.20;99.90
1786;DHT22;890;48.158;11.540;2023-11-18T04:26:13;6.20;99.90
1786;DHT22;890;48.158;11.540;2023-11-18T04:28:39;6.30;99.90
1786;DHT22;890;48.158;11.540;2023-11-18T04:31:05;6.30;99.90
1786;DHT22;890;48.158;11.540;2023-11-18T04:33:31;6.40;99.90
1786;DHT22;890;48.158;11.540;2023-11-18T04:35:57;6.40;99.90
1786;DHT22;890;48.158;11.540;2023-11-18T04:38:23;6.50;99.90
1786;DHT22;890;48.158;11.540;2023-11-18T04:40:49;6.40;99.90
1786;DHT22;890;48.158;11.540;2023-11-18T04:43:15;6.40;99.90
1786;DHT22;890;48.158;11.540;2023-11-18T04:45:44;6.40;99.90
1786;DHT22;890;48.158;11.540;2023-11-18T04:48:09;6.40;99.90
1786;DHT22;890;48.158;11.540;2023-11-18T04:50:35;6.40;99.90
1786;DHT22;890;48.158;11.540;2023-11-18T04:53:01;6.40;99.90
1786;DHT22;890;48.158;11.540;2023-11-18T04:55:28;6.40;99.90
1786;DHT22;890;48.158;11.540;2023-11-18T04:57:54;6.40;99.90
1786;DHT22;890;48.158;11.540;2023-11-18T05:00:20;6.40;99.90
1786;DHT22;890;48.158;11.540;2023-11-18T05:02:46;6.40;99.90
1786;DHT22;890;48.158;11.540;2023-11-18T05:05:13;6.50;99.90
1786;DHT22;890;48.158;11.540;2023-11-18T05:07:40;6.40;99.90
1786;DHT22;890;48.158;11.540;2023-11-18T05:10:06;6.40;99.90
1786;DHT22;890;48.158;11.540;2023-11-18T05:12:36;6.50;99.90
1786;DHT22;890;48.158;11.540;2023-11-18T05:15:03;4.80;99.90
1786;DHT22;890;48.158;11.540;2023-11-18T05:17:30;6.50;99.90
1786;DHT22;890;48.158;11.540;2023-11-18T05:19:55;6.50;99.90
1786;DHT22;890;48.158;11.540;2023-11-18T05:22:21;6.50;99.90
1786;DHT22;890;48.158;11.540;2023-11-18T05:24:47;6.40;99.90
1786;DHT22;890;48.158;11.540;2023-11-18T05:27:14;6.40;99.90
1786;DHT22;890;48.158;11.540;2023-11-18T05:29:39;6.40;99.90
1786;DHT22;890;48.158;11.540;2023-11-18T05:32:07;6.50;99.90
1786;DHT22;890;48.158;11.540;2023-11-18T05:34:33;6.50;99.90
1786;DHT22;890;48.158;11.540;2023-11-18T05:37:01;6.50;99.90
1786;DHT22;890;48.158;11.540;2023-11-18T05:39:26;6.50;99.90
1786;DHT22;890;48.158;11.540;2023-11-18T05:41:56;6.40;99.90
1786;DHT22;890;48.158;11.540;2023-11-18T05:44:22;4.50;99.90
1786;DHT22;890;48.158;11.540;2023-11-18T05:46:59;6.30;99.90
1786;DHT22;890;48.158;11.540;2023-11-18T05:49:25;6.30;99.90
1786;DHT22;890;48.158;11.540;2023-11-18T05:51:51;7.40;99.90
1786;DHT22;890;48.158;11.540;2023-11-18T05:54:17;6.30;99.90
1786;DHT22;890;48.158;11.540;2023-11-18T05:56:43;6.40;99.90
1786;DHT22;890;48.158;11.540;2023-11-18T05:59:08;6.40;99.90
1786;DHT22;890;48.158;11.540;2023-11-18T06:01:34;6.40;99.90
1786;DHT22;890;48.158;11.540;2023-11-18T06:04:00;6.40;99.90
1786;DHT22;890;48.158;11.540;2023-11-18T06:06:26;6.50;99.90
1786;DHT22;890;48.158;11.540;2023-11-18T06:08:52;6.50;99.90
1786;DHT22;890;48.158;11.540;2023-11-18T06:11:19;6.40;99.90
1786;DHT22;890;48.158;11.540;2023-11-18T06:13:46;6.30;99.90
1786;DHT22;890;48.158;11.540;2023-11-18T06:16:16;6.30;99.90
1786;DHT22;890;48.158;11.540;2023-11-18T06:18:45;6.30;99.90
1786;DHT22;890;48.158;11.540;2023-11-18T06:21:15;6.30;99.90
1786;DHT22;890;48.158;11.540;2023-11-18T06:23:42;6.40;99.90
1786;DHT22;890;48.158;11.540;2023-11-18T06:26:08;6.40;99.90
1786;DHT22;890;48.158;11.540;2023-11-18T06:28:39;6.40;99.90
1786;DHT22;890;48.158;11.540;2023-11-18T06:31:05;6.40;99.90
1786;DHT22;890;48.158;11.540;2023-11-18T06:33:36;6.50;99.90
1786;DHT22;890;48.158;11.540;2023-11-18T06:36:03;6.40;99.90
1786;DHT22;890;48.158;11.540;2023-11-18T06:38:29;6.50;99.90
1786;DHT22;890;48.158;11.540;2023-11-18T06:40:56;6.50;99.90
1786;DHT22;890;48.158;11.540;2023-11-18T06:43:21;6.60;99.90
1786;DHT22;890;48.158;11.540;2023-11-18T06:45:47;6.60;99.90
1786;DHT22;890;48.158;11.540;2023-11-18T06:48:14;6.60;99.90
1786;DHT22;890;48.158;11.540;2023-11-18T06:50:40;6.60;99.90
1786;DHT22;890;48.158;11.540;2023-11-18T06:53:09;6.60;99.90
1786;DHT22;890;48.158;11.540;2023-11-18T06:55:36;6.50;99.90
1786;DHT22;890;48.158;11.540;2023-11-18T06:58:01;6.60;99.90
1786;DHT22;890;48.158;11.540;2023-11-18T07:00:28;6.70;99.90
1786;DHT22;890;48.158;11.540;2023-11-18T07:02:54;6.70;99.90
1786;DHT22;890;48.158;11.540;2023-11-18T07:05:20;6.80;99.90
1786;DHT22;890;48.158;11.540;2023-11-18T07:07:50;6.90;99.90
1786;DHT22;890;48.158;11.540;2023-11-18T07:10:16;7.00;99.90
1786;DHT22;890;48.158;11.540;2023-11-18T07:12:46;7.00;99.90
1786;DHT22;890;48.158;11.540;2023-11-18T07:15:14;6.90;99.90
1786;DHT22;890;48.158;11.540;2023-11-18T07:17:40;6.90;99.90
1786;DHT22;890;48.158;11.540;2023-11-18T07:20:06;6.90;99.90
1786;DHT22;890;48.158;11.540;2023-11-18T07:22:32;6.90;99.90
1786;DHT22;890;48.158;11.540;2023-11-18T07:24:57;6.90;99.90
1786;DHT22;890;48.158;11.540;2023-11-18T07:27:23;7.00;99.90
1786;DHT22;890;48.158;11.540;2023-11-18T07:29:48;7.10;99.90
1786;DHT22;890;48.158;11.540;2023-11-18T07:32:14;7.10;99.90
1786;DHT22;890;48.158;11.540;2023-11-18T07:34:40;7.20;99.90
1786;DHT22;890;48.158;11.540;2023-11-18T07:37:06;7.20;99.90
1786;DHT22;890;48.158;11.540;2023-11-18T07:39:33;7.20;99.90
1786;DHT22;890;48.158;11.540;2023-11-18T07:42:14;7.30;99.90
1786;DHT22;890;48.158;11.540;2023-11-18T07:44:40;7.20;99.90
1786;DHT22;890;48.158;11.540;2023-11-18T07:47:06;7.20;99.90
1786;DHT22;890;48.158;11.540;2023-11-18T07:49:33;7.20;99.90
1786;DHT22;890;48.158;11.540;2023-11-18T07:51:59;7.30;99.90
1786;DHT22;890;48.158;11.540;2023-11-18T07:54:25;7.40;99.90
1786;DHT22;890;48.158;11.540;2023-11-18T07:56:50;7.40;99.90
1786;DHT22;890;48.158;11.540;2023-11-18T07:59:19;7.40;99.90
1786;DHT22;890;48.158;11.540;2023-11-18T08:01:45;7.50;99.90
1786;DHT22;890;48.158;11.540;2023-11-18T08:04:12;7.50;99.90
1786;DHT22;890;48.158;11.540;2023-11-18T08:06:39;7.50;99.90
1786;DHT22;890;48.158;11.540;2023-11-18T08:09:05;7.60;99.90
1786;DHT22;890;48.158;11.540;2023-11-18T08:11:38;7.80;99.90
1786;DHT22;890;48.158;11.540;2023-11-18T08:14:07;7.80;99.90
1786;DHT22;890;48.158;11.540;2023-11-18T08:16:33;7.90;99.90
1786;DHT22;890;48.158;11.540;2023-11-18T08:18:59;7.90;99.90
1786;DHT22;890;48.158;11.540;2023-11-18T08:21:24;7.90;99.90
1786;DHT22;890;48.158;11.540;2023-11-18T08:23:50;7.90;99.90
1786;DHT22;890;48.158;11.540;2023-11-18T08:26:16;7.80;99.90
1786;DHT22;890;48.158;11.540;2023-11-18T08:28:41;7.80;99.90
1786;DHT22;890;48.158;11.540;2023-11-18T08:31:07;7.90;99.90
1786;DHT22;890;48.158;11.540;2023-11-18T08:33:34;8.00;99.90
1786;DHT22;890;48.158;11.540;2023-11-18T08:36:00;7.90;99.90
1786;DHT22;890;48.158;11.540;2023-11-18T08:38:27;7.90;99.90
1786;DHT22;890;48.158;11.540;2023-11-18T08:40:53;7.90;99.90
1786;DHT22;890;48.158;11.540;2023-11-18T08:43:20;7.80;99.90
1786;DHT22;890;48.158;11.540;2023-11-18T08:45:46;7.90;99.90
1786;DHT22;890;48.158;11.540;2023-11-18T08:48:12;7.90;99.90
1786;DHT22;890;48.158;11.540;2023-11-18T08:50:38;8.00;99.90
1786;DHT22;890;48.158;11.540;2023-11-18T08:53:08;8.20;99.90
1786;DHT22;890;48.158;11.540;2023-11-18T08:55:35;8.20;99.90
1786;DHT22;890;48.158;11.540;2023-11-18T08:58:09;8.20;99.90
1786;DHT22;890;48.158;11.540;2023-11-18T09:00:42;8.20;99.90
1786;DHT22;890;48.158;11.540;2023-11-18T09:03:17;8.30;99.90
1786;DHT22;890;48.158;11.540;2023-11-18T09:05:47;8.30;99.90
1786;DHT22;890;48.158;11.540;2023-11-18T09:08:28;8.20;99.90
1786;DHT22;890;48.158;11.540;2023-11-18T09:10:58;8.20;99.90
1786;DHT22;890;48.158;11.540;2023-11-18T09:13:26;8.20;99.90
1786;DHT22;890;48.158;11.540;2023-11-18T09:16:15;8.30;99.90
1786;DHT22;890;48.158;11.540;2023-11-18T09:18:43;8.30;99.20
1786;DHT22;890;48.158;11.540;2023-11-18T09:21:11;8.40;99.20
1786;DHT22;890;48.158;11.540;2023-11-18T09:23:41;8.40;99.10
1786;DHT22;890;48.158;11.540;2023-11-18T09:26:07;8.60;99.00
1786;DHT22;890;48.158;11.540;2023-11-18T09:28:34;8.70;99.30
1786;DHT22;890;48.158;11.540;2023-11-18T09:31:03;8.70;99.10
1786;DHT22;890;48.158;11.540;2023-11-18T09:33:31;9.00;99.00
1786;DHT22;890;48.158;11.540;2023-11-18T09:36:01;9.00;98.80
1786;DHT22;890;48.158;11.540;2023-11-18T09:38:31;9.10;98.60
1786;DHT22;890;48.158;11.540;2023-11-18T09:40:58;9.10;98.30
1786;DHT22;890;48.158;11.540;2023-11-18T09:43:31;9.20;98.40
1786;DHT22;890;48.158;11.540;2023-11-18T09:46:17;9.30;98.10
1786;DHT22;890;48.158;11.540;2023-11-18T09:51:20;9.80;98.20
1786;DHT22;890;48.158;11.540;2023-11-18T09:53:53;10.00;97.50
1786;DHT22;890;48.158;11.540;2023-11-18T09:56:28;10.50;98.80
1786;DHT22;890;48.158;11.540;2023-11-18T10:01:56;11.30;97.70
1786;DHT22;890;48.158;11.540;2023-11-18T10:04:26;11.40;97.10
1786;DHT22;890;48.158;11.540;2023-11-18T10:06:53;11.80;97.20
1786;DHT22;890;48.158;11.540;2023-11-18T10:09:19;12.30;98.30
1786;DHT22;890;48.158;11.540;2023-11-18T10:11:54;12.40;98.40
1786;DHT22;890;48.158;11.540;2023-11-18T10:14:36;12.10;95.70
1786;DHT22;890;48.158;11.540;2023-11-18T10:17:06;12.00;94.90
1786;DHT22;890;48.158;11.540;2023-11-18T10:19:54;12.00;94.00
1786;DHT22;890;48.158;11.540;2023-11-18T10:22:29;12.10;94.30
1786;DHT22;890;48.158;11.540;2023-11-18T10:24:56;12.30;93.70
1786;DHT22;890;48.158;11.540;2023-11-18T10:27:26;12.70;93.10
1786;DHT22;890;48.158;11.540;2023-11-18T10:30:02;12.60;93.50
1786;DHT22;890;48.158;11.540;2023-11-18T10:32:28;12.50;92.50
1786;DHT22;890;48.158;11.540;2023-11-18T10:34:57;12.40;91.20
1786;DHT22;890;48.158;11.540;2023-11-18T10:37:26;12.20;90.40
1786;DHT22;890;48.158;11.540;2023-11-18T10:39:56;12.20;87.90
1786;DHT22;890;48.158;11.540;2023-11-18T10:42:25;12.10;84.70
1786;DHT22;890;48.158;11.540;2023-11-18T10:44:55;12.00;81.80
1786;DHT22;890;48.158;11.540;2023-11-18T10:47:28;11.90;80.40
1786;DHT22;890;48.158;11.540;2023-11-18T10:49:55;11.70;80.40
1786;DHT22;890;48.158;11.540;2023-11-18T10:52:27;11.60;80.60
1786;DHT22;890;48.158;11.540;2023-11-18T10:55:01;11.40;80.40
1786;DHT22;890;48.158;11.540;2023-11-18T10:57:33;11.20;79.60
1786;DHT22;890;48.158;11.540;2023-11-18T11:00:05;11.10;79.80
1786;DHT22;890;48.158;11.540;2023-11-18T11:02:44;11.10;78.70
1786;DHT22;890;48.158;11.540;2023-11-18T11:05:10;11.10;79.70
1786;DHT22;890;48.158;11.540;2023-11-18T11:07:42;11.10;79.40
1786;DHT22;890;48.158;11.540;2023-11-18T11:10:09;11.10;77.90
1786;DHT22;890;48.158;11.540;2023-11-18T11:12:46;11.30;76.80
1786;DHT22;890;48.158;11.540;2023-11-18T11:15:29;11.40;75.00
1786;DHT22;890;48.158;11.540;2023-11-18T11:18:02;11.30;75.30
1786;DHT22;890;48.158;11.540;2023-11-18T11:20:38;11.30;74.50
1786;DHT22;890;48.158;11.540;2023-11-18T11:23:27;10.90;74.50
1786;DHT22;890;48.158;11.540;2023-11-18T11:28:42;10.60;74.40
1786;DHT22;890;48.158;11.540;2023-11-18T11:31:12;10.50;74.50
1786;DHT22;890;48.158;11.540;2023-11-18T11:33:53;10.20;74.50
1786;DHT22;890;48.158;11.540;2023-11-18T11:36:35;10.10;75.00
1786;DHT22;890;48.158;11.540;2023-11-18T11:39:03;10.20;75.60
1786;DHT22;890;48.158;11.540;2023-11-18T11:41:32;10.20;75.60
1786;DHT22;890;48.158;11.540;2023-11-18T11:44:00;10.20;75.10
1786;DHT22;890;48.158;11.540;2023-11-18T11:46:27;10.30;74.30
1786;DHT22;890;48.158;11.540;2023-11-18T11:49:00;10.50;73.50
1786;DHT22;890;48.158;11.540;2023-11-18T11:51:46;10.80;74.10
1786;DHT22;890;48.158;11.540;2023-11-18T11:54:27;11.10;74.40
1786;DHT22;890;48.158;11.540;2023-11-18T11:56:56;11.40;74.20
1786;DHT22;890;48.158;11.540;2023-11-18T11:59:55;11.50;72.20
1786;DHT22;890;48.158;11.540;2023-11-18T12:02:26;11.10;71.00
1786;DHT22;890;48.158;11.540;2023-11-18T12:04:57;11.00;70.30
1786;DHT22;890;48.158;11.540;2023-11-18T12:07:27;10.80;69.90
1786;DHT22;890;48.158;11.540;2023-11-18T12:09:59;10.60;70.30
1786;DHT22;890;48.158;11.540;2023-11-18T12:12:26;10.50;70.70
1786;DHT22;890;48.158;11.540;2023-11-18T12:14:59;10.70;72.50
1786;DHT22;890;48.158;11.540;2023-11-18T12:20:40;10.60;72.20
1786;DHT22;890;48.158;11.540;2023-11-18T12:23:21;10.50;71.20
1786;DHT22;890;48.158;11.540;2023-11-18T12:25:51;10.60;71.70
1786;DHT22;890;48.158;11.540;2023-11-18T12:28:24;10.50;71.20
1786;DHT22;890;48.158;11.540;2023-11-18T12:30:55;10.40;70.40
1786;DHT22;890;48.158;11.540;2023-11-18T12:39:38;10.30;69.90
1786;DHT22;890;48.158;11.540;2023-11-18T12:42:09;10.20;69.50
1786;DHT22;890;48.158;11.540;2023-11-18T12:45:39;10.20;69.50
1786;DHT22;890;48.158;11.540;2023-11-18T12:47:54;10.00;68.90
1786;DHT22;890;48.158;11.540;2023-11-18T12:50:21;10.10;69.50
1786;DHT22;890;48.158;11.540;2023-11-18T12:52:53;10.20;69.50
1786;DHT22;890;48.158;11.540;2023-11-18T12:55:20;10.30;69.40
1786;DHT22;890;48.158;11.540;2023-11-18T12:57:46;10.40;69.10
1786;DHT22;890;48.158;11.540;2023-11-18T13:00:14;10.40;68.80
1786;DHT22;890;48.158;11.540;2023-11-18T13:02:42;10.30;68.90
1786;DHT22;890;48.158;11.540;2023-11-18T13:05:08;10.30;69.10
1786;DHT22;890;48.158;11.540;2023-11-18T13:07:39;10.40;69.10
1786;DHT22;890;48.158;11.540;2023-11-18T13:10:05;10.40;69.10
1786;DHT22;890;48.158;11.540;2023-11-18T13:12:31;10.30;68.40
1786;DHT22;890;48.158;11.540;2023-11-18T13:14:57;10.20;68.50
1786;DHT22;890;48.158;11.540;2023-11-18T13:17:22;10.10;68.60
1786;DHT22;890;48.158;11.540;2023-11-18T13:19:48;10.00;68.60
1786;DHT22;890;48.158;11.540;2023-11-18T13:22:17;10.00;68.80
1786;DHT22;890;48.158;11.540;2023-11-18T13:24:45;10.00;69.00
1786;DHT22;890;48.158;11.540;2023-11-18T13:27:16;10.00;68.70
1786;DHT22;890;48.158;11.540;2023-11-18T13:29:45;9.90;69.60
1786;DHT22;890;48.158;11.540;2023-11-18T13:32:11;9.90;69.60
1786;DHT22;890;48.158;11.540;2023-11-18T13:34:39;9.90;69.80
1786;DHT22;890;48.158;11.540;2023-11-18T13:37:10;9.90;70.10
1786;DHT22;890;48.158;11.540;2023-11-18T13:39:38;10.00;68.90
1786;DHT22;890;48.158;11.540;2023-11-18T13:42:20;9.90;70.00
1786;DHT22;890;48.158;11.540;2023-11-18T13:44:46;9.60;70.20
1786;DHT22;890;48.158;11.540;2023-11-18T13:47:13;9.80;70.40
1786;DHT22;890;48.158;11.540;2023-11-18T13:49:41;11.20;70.90
1786;DHT22;890;48.158;11.540;2023-11-18T13:52:07;9.70;70.40
1786;DHT22;890;48.158;11.540;2023-11-18T13:54:40;9.60;70.80
1786;DHT22;890;48.158;11.540;2023-11-18T13:57:08;9.50;71.00
1786;DHT22;890;48.158;11.540;2023-11-18T13:59:35;9.50;71.00
1786;DHT22;890;48.158;11.540;2023-11-18T14:02:01;9.60;71.30
1786;DHT22;890;48.158;11.540;2023-11-18T14:04:30;9.60;71.60
1786;DHT22;890;48.158;11.540;2023-11-18T14:07:01;9.70;71.80
1786;DHT22;890;48.158;11.540;2023-11-18T14:09:31;9.70;71.80
1786;DHT22;890;48.158;11.540;2023-11-18T14:12:01;9.70;71.80
1786;DHT22;890;48.158;11.540;2023-11-18T14:14:27;9.70;72.10
1786;DHT22;890;48.158;11.540;2023-11-18T14:16:54;9.70;72.30
1786;DHT22;890;48.158;11.540;2023-11-18T14:19:26;9.80;72.30
1786;DHT22;890;48.158;11.540;2023-11-18T14:21:53;9.80;72.00
1786;DHT22;890;48.158;11.540;2023-11-18T14:24:18;9.80;71.80
1786;DHT22;890;48.158;11.540;2023-11-18T14:26:44;9.70;71.90
1786;DHT22;890;48.158;11.540;2023-11-18T14:29:10;9.60;72.10
1786;DHT22;890;48.158;11.540;2023-11-18T14:31:37;9.70;72.20
1786;DHT22;890;48.158;11.540;2023-11-18T14:34:03;9.70;72.30
1786;DHT22;890;48.158;11.540;2023-11-18T14:36:30;9.60;72.20
1786;DHT22;890;48.158;11.540;2023-11-18T14:38:55;9.60;72.20
1786;DHT22;890;48.158;11.540;2023-11-18T14:41:23;9.50;72.00
1786;DHT22;890;48.158;11.540;2023-11-18T14:43:52;9.40;72.20
1786;DHT22;890;48.158;11.540;2023-11-18T14:46:18;9.40;72.50
1786;DHT22;890;48.158;11.540;2023-11-18T14:48:46;9.40;72.50
1786;DHT22;890;48.158;11.540;2023-11-18T14:51:12;9.30;72.50
1786;DHT22;890;48.158;11.540;2023-11-18T14:53:38;9.30;72.70
1786;DHT22;890;48.158;11.540;2023-11-18T14:56:04;9.20;72.90
1786;DHT22;890;48.158;11.540;2023-11-18T14:58:32;9.20;73.10
1786;DHT22;890;48.158;11.540;2023-11-18T15:01:01;9.20;73.20
1786;DHT22;890;48.158;11.540;2023-11-18T15:03:27;9.20;73.40
1786;DHT22;890;48.158;11.540;2023-11-18T15:05:53;9.30;73.70
1786;DHT22;890;48.158;11.540;2023-11-18T15:08:18;9.30;73.40
1786;DHT22;890;48.158;11.540;2023-11-18T15:10:44;9.30;73.30
1786;DHT22;890;48.158;11.540;2023-11-18T15:13:11;9.30;73.30
1786;DHT22;890;48.158;11.540;2023-11-18T15:15:46;9.30;73.50
1786;DHT22;890;48.158;11.540;2023-11-18T15:18:15;9.40;73.80
1786;DHT22;890;48.158;11.540;2023-11-18T15:20:46;9.40;73.90
1786;DHT22;890;48.158;11.540;2023-11-18T15:23:13;9.40;74.30
1786;DHT22;890;48.158;11.540;2023-11-18T15:25:39;9.40;74.30
1786;DHT22;890;48.158;11.540;2023-11-18T15:28:05;9.40;73.90
1786;DHT22;890;48.158;11.540;2023-11-18T15:30:38;9.30;73.60
1786;DHT22;890;48.158;11.540;2023-11-18T15:33:05;9.30;73.80
1786;DHT22;890;48.158;11.540;2023-11-18T15:35:36;9.30;74.00
1786;DHT22;890;48.158;11.540;2023-11-18T15:38:07;9.40;74.40
1786;DHT22;890;48.158;11.540;2023-11-18T15:40:36;9.40;74.40
1786;DHT22;890;48.158;11.540;2023-11-18T15:43:03;9.40;74.80
1786;DHT22;890;48.158;11.540;2023-11-18T15:45:31;9.40;74.70
1786;DHT22;890;48.158;11.540;2023-11-18T15:47:58;9.40;74.30
1786;DHT22;890;48.158;11.540;2023-11-18T15:50:25;9.30;74.50
1786;DHT22;890;48.158;11.540;2023-11-18T15:52:54;9.20;74.40
1786;DHT22;890;48.158;11.540;2023-11-18T15:55:20;10.10;74.50
1786;DHT22;890;48.158;11.540;2023-11-18T15:57:48;9.10;75.00
1786;DHT22;890;48.158;11.540;2023-11-18T16:00:19;9.00;75.00
1786;DHT22;890;48.158;11.540;2023-11-18T16:02:50;9.00;75.20
1786;DHT22;890;48.158;11.540;2023-11-18T16:05:17;9.00;76.20
1786;DHT22;890;48.158;11.540;2023-11-18T16:07:47;9.10;75.70
1786;DHT22;890;48.158;11.540;2023-11-18T16:10:14;9.10;75.90
1786;DHT22;890;48.158;11.540;2023-11-18T16:12:47;9.10;76.10
1786;DHT22;890;48.158;11.540;2023-11-18T16:15:13;9.10;75.90
1786;DHT22;890;48.158;11.540;2023-11-18T16:17:42;9.20;76.20
1786;DHT22;890;48.158;11.540;2023-11-18T16:20:11;9.20;76.40
1786;DHT22;890;48.158;11.540;2023-11-18T16:22:41;9.20;76.50
1786;DHT22;890;48.158;11.540;2023-11-18T16:25:06;9.40;76.60
1786;DHT22;890;48.158;11.540;2023-11-18T16:27:32;9.30;76.30
1786;DHT22;890;48.158;11.540;2023-11-18T16:29:58;9.30;76.70
1786;DHT22;890;48.158;11.540;2023-11-18T16:32:24;9.30;76.80
1786;DHT22;890;48.158;11.540;2023-11-18T16:34:50;9.30;76.30
1786;DHT22;890;48.158;11.540;2023-11-18T16:37:16;9.10;76.40
1786;DHT22;890;48.158;11.540;2023-11-18T16:39:42;9.00;76.40
1786;DHT22;890;48.158;11.540;2023-11-18T16:42:08;8.90;76.40